createdAt,value
2018-05-09T00:00:06.576Z,41.73
2018-05-09T00:02:36.428Z,42.32
2018-05-09T00:05:05.671Z,44.61
2018-05-09T00:07:35.601Z,45.68
2018-05-09T00:10:04.678Z,46.20
2018-05-09T00:12:34.094Z,46.36
2018-05-09T00:15:04.042Z,46.89
2018-05-09T00:17:33.587Z,47.20
2018-05-09T00:20:03.115Z,48.15
2018-05-09T00:22:33.055Z,48.78
2018-05-09T00:25:02.579Z,49.02
2018-05-09T00:27:32.115Z,48.72
2018-05-09T00:30:01.654Z,47.81
2018-05-09T00:32:31.871Z,48.12
2018-05-09T00:35:01.917Z,48.16
2018-05-09T00:37:31.494Z,48.24
2018-05-09T00:40:01.414Z,48.51
2018-05-09T00:42:31.354Z,48.65
2018-05-09T00:45:00.876Z,49.04
2018-05-09T00:47:30.421Z,49.14
2018-05-09T00:49:59.929Z,48.97
2018-05-09T00:52:29.511Z,48.81
2018-05-09T00:54:58.879Z,48.74
2018-05-09T00:57:28.402Z,48.37
2018-05-09T00:59:58.024Z,47.63
2018-05-09T01:02:27.814Z,48.24
2018-05-09T01:04:57.432Z,48.09
2018-05-09T01:07:26.122Z,48.46
2018-05-09T01:09:55.656Z,48.85
2018-05-09T01:12:25.174Z,49.00
2018-05-09T01:14:56.446Z,49.31
2018-05-09T01:17:26.454Z,49.60
2018-05-09T01:19:56.034Z,49.61
2018-05-09T01:22:25.591Z,50.16
2018-05-09T01:24:55.512Z,51.08
2018-05-09T01:27:25.035Z,52.17
2018-05-09T01:29:54.496Z,51.77
2018-05-09T01:32:24.218Z,51.37
2018-05-09T01:34:53.806Z,51.17
2018-05-09T01:37:23.320Z,51.56
2018-05-09T01:39:53.326Z,51.76
2018-05-09T01:42:23.292Z,52.28
2018-05-09T01:44:52.836Z,52.36
2018-05-09T01:47:22.381Z,51.69
2018-05-09T01:49:51.698Z,51.20
2018-05-09T01:52:21.281Z,50.92
2018-05-09T01:54:51.938Z,50.18
2018-05-09T01:57:21.571Z,51.16
2018-05-09T01:59:51.156Z,52.21
2018-05-09T02:02:20.672Z,52.67
2018-05-09T02:04:50.217Z,52.93
2018-05-09T02:07:19.746Z,53.32
2018-05-09T02:09:49.454Z,53.23
2018-05-09T02:12:19.396Z,53.45
2018-05-09T02:14:48.922Z,53.56
2018-05-09T02:17:18.220Z,53.81
2018-05-09T02:19:47.752Z,53.04
2018-05-09T02:22:17.316Z,53.99
2018-05-09T02:24:47.142Z,53.58
2018-05-09T02:27:16.722Z,53.55
2018-05-09T02:29:46.627Z,53.58
2018-05-09T02:32:16.543Z,53.62
2018-05-09T02:34:46.504Z,53.18
2018-05-09T02:37:16.495Z,52.78
2018-05-09T02:39:46.034Z,53.52
2018-05-09T02:42:15.420Z,53.48
2018-05-09T02:44:44.948Z,53.25
2018-05-09T02:47:14.463Z,53.87
2018-05-09T02:49:43.987Z,54.18
2018-05-09T02:52:13.566Z,54.38
2018-05-09T02:54:43.094Z,53.86
2018-05-09T02:57:12.613Z,54.00
2018-05-09T02:59:42.534Z,53.94
2018-05-09T03:02:12.238Z,54.10
2018-05-09T03:04:41.742Z,54.57
2018-05-09T03:07:11.251Z,54.97
2018-05-09T03:09:40.797Z,55.55
2018-05-09T03:12:10.320Z,55.71
2018-05-09T03:14:39.850Z,55.53
2018-05-09T03:17:09.425Z,55.85
2018-05-09T03:19:38.956Z,55.86
2018-05-09T03:22:08.230Z,55.95
2018-05-09T03:24:37.747Z,56.22
2018-05-09T03:27:07.279Z,56.41
2018-05-09T03:29:36.794Z,56.52
2018-05-09T03:32:06.322Z,56.71
2018-05-09T03:34:36.530Z,56.77
2018-05-09T03:37:06.157Z,56.36
2018-05-09T03:39:35.672Z,56.35
2018-05-09T03:42:05.226Z,56.01
2018-05-09T03:44:34.745Z,55.84
2018-05-09T03:47:04.273Z,55.95
2018-05-09T03:49:34.210Z,55.66
2018-05-09T03:52:03.723Z,55.23
2018-05-09T03:54:33.537Z,54.94
2018-05-09T03:57:03.099Z,55.26
2018-05-09T03:59:33.021Z,55.35
2018-05-09T04:02:19.883Z,55.54
2018-05-09T04:05:06.292Z,55.65
2018-05-09T04:10:51.122Z,55.99
2018-05-09T04:13:20.831Z,55.96
2018-05-09T04:15:50.369Z,55.87
2018-05-09T04:18:19.959Z,55.98
2018-05-09T04:20:49.538Z,55.94
2018-05-09T04:23:19.278Z,55.97
2018-05-09T04:25:49.219Z,55.66
2018-05-09T04:28:18.807Z,55.47
2018-05-09T04:30:48.358Z,55.64
2018-05-09T04:33:17.908Z,55.45
2018-05-09T04:35:47.863Z,55.69
2018-05-09T04:38:17.417Z,55.53
2018-05-09T04:40:46.951Z,55.47
2018-05-09T04:43:16.466Z,55.48
2018-05-09T04:45:45.991Z,55.36
2018-05-09T04:48:15.561Z,54.41
2018-05-09T04:50:45.237Z,51.84
2018-05-09T04:53:14.796Z,50.96
2018-05-09T04:55:44.468Z,48.07
2018-05-09T04:58:14.066Z,44.94
2018-05-09T05:00:43.601Z,40.92
2018-05-09T05:03:12.896Z,38.38
2018-05-09T05:05:42.835Z,35.42
2018-05-09T05:08:13.176Z,33.68
2018-05-09T05:10:43.276Z,31.54
2018-05-09T05:13:13.673Z,30.73
2018-05-09T05:15:43.772Z,30.52
2018-05-09T05:18:14.175Z,29.52
2018-05-09T05:20:44.294Z,28.79
2018-05-09T05:23:14.775Z,28.04
2018-05-09T05:25:44.699Z,28.11
2018-05-09T05:28:14.812Z,27.21
2018-05-09T05:30:44.910Z,27.21
2018-05-09T05:33:14.982Z,26.69
2018-05-09T05:35:45.149Z,26.32
2018-05-09T05:38:14.945Z,25.52
2018-05-09T05:40:44.787Z,25.39
2018-05-09T05:43:14.971Z,25.27
2018-05-09T05:45:44.816Z,24.99
2018-05-09T05:48:14.643Z,24.51
2018-05-09T05:50:44.756Z,24.93
2018-05-09T05:53:14.574Z,25.18
2018-05-09T05:55:44.653Z,25.26
2018-05-09T05:58:15.487Z,25.06
2018-05-09T06:00:45.961Z,25.96
2018-05-09T06:03:16.491Z,27.18
2018-05-09T06:05:46.576Z,28.61
2018-05-09T06:08:16.685Z,29.77
2018-05-09T06:10:47.193Z,31.33
2018-05-09T06:13:16.940Z,33.43
2018-05-09T06:15:47.038Z,33.92
2018-05-09T06:18:17.136Z,34.87
2018-05-09T06:20:48.477Z,35.56
2018-05-09T06:23:18.742Z,36.66
2018-05-09T06:25:49.526Z,37.11
2018-05-09T06:28:19.592Z,37.07
2018-05-09T06:30:50.375Z,37.32
2018-05-09T06:33:20.888Z,36.94
2018-05-09T06:35:51.020Z,37.76
2018-05-09T06:38:21.123Z,36.71
2018-05-09T06:40:51.201Z,37.00
2018-05-09T06:43:21.675Z,38.40
2018-05-09T06:45:51.590Z,39.63
2018-05-09T06:48:21.548Z,41.14
2018-05-09T06:50:51.067Z,41.55
2018-05-09T06:53:20.585Z,41.70
2018-05-09T06:55:50.307Z,41.16
2018-05-09T06:58:20.272Z,40.77
2018-05-09T07:00:50.283Z,39.02
2018-05-09T07:03:20.139Z,38.00
2018-05-09T07:05:50.615Z,36.80
2018-05-09T07:08:20.684Z,36.94
2018-05-09T07:10:51.228Z,38.14
2018-05-09T07:13:21.375Z,38.30
2018-05-09T07:15:54.565Z,37.88
2018-05-09T07:18:24.683Z,37.92
2018-05-09T07:20:54.783Z,37.84
2018-05-09T07:23:24.883Z,37.97
2018-05-09T07:25:55.662Z,37.32
2018-05-09T07:28:25.615Z,37.25
2018-05-09T07:30:56.145Z,38.92
2018-05-09T07:33:26.257Z,39.04
2018-05-09T07:35:56.409Z,39.45
2018-05-09T07:38:27.259Z,39.68
2018-05-09T07:40:57.315Z,38.89
2018-05-09T07:43:27.411Z,39.85
2018-05-09T07:45:56.938Z,40.37
2018-05-09T07:48:27.101Z,39.98
2018-05-09T07:50:56.652Z,39.68
2018-05-09T07:53:26.799Z,38.71
2018-05-09T07:55:56.391Z,39.46
2018-05-09T07:58:26.281Z,40.21
2018-05-09T08:00:55.799Z,40.58
2018-05-09T08:03:25.323Z,41.56
2018-05-09T08:05:55.327Z,40.95
2018-05-09T08:08:25.029Z,40.68
2018-05-09T08:10:54.786Z,42.49
2018-05-09T08:13:24.600Z,41.95
2018-05-09T08:15:54.333Z,43.24
2018-05-09T08:18:23.892Z,42.80
2018-05-09T08:20:53.618Z,42.58
2018-05-09T08:23:23.140Z,42.38
2018-05-09T08:25:52.640Z,42.45
2018-05-09T08:28:22.420Z,42.33
2018-05-09T08:30:52.156Z,41.80
2018-05-09T08:33:21.688Z,41.62
2018-05-09T08:35:51.227Z,40.84
2018-05-09T08:38:20.758Z,39.29
2018-05-09T08:40:50.864Z,38.61
2018-05-09T08:43:21.028Z,37.83
2018-05-09T08:45:51.293Z,38.82
2018-05-09T08:48:21.374Z,40.06
2018-05-09T08:50:51.461Z,40.80
2018-05-09T08:53:21.422Z,41.27
2018-05-09T08:55:50.980Z,41.16
2018-05-09T08:58:21.100Z,40.79
2018-05-09T09:00:51.203Z,40.42
2018-05-09T09:03:21.283Z,40.47
2018-05-09T09:05:51.845Z,40.24
2018-05-09T09:08:21.366Z,41.25
2018-05-09T09:10:51.823Z,40.36
2018-05-09T09:13:22.107Z,39.78
2018-05-09T09:15:52.204Z,39.66
2018-05-09T09:18:22.784Z,40.24
2018-05-09T09:20:52.981Z,40.18
2018-05-09T09:23:23.203Z,39.12
2018-05-09T09:25:53.322Z,39.72
2018-05-09T09:28:24.284Z,39.28
2018-05-09T09:30:54.393Z,37.40
2018-05-09T09:33:24.474Z,36.23
2018-05-09T09:35:54.946Z,35.34
2018-05-09T09:38:25.092Z,35.22
2018-05-09T09:40:55.617Z,36.22
2018-05-09T09:43:25.732Z,35.81
2018-05-09T09:45:55.873Z,35.88
2018-05-09T09:48:26.086Z,35.25
2018-05-09T09:50:57.427Z,34.37
2018-05-09T09:53:27.508Z,33.57
2018-05-09T09:55:57.645Z,33.41
2018-05-09T09:58:27.791Z,32.56
2018-05-09T10:00:57.890Z,32.86
2018-05-09T10:03:27.964Z,31.37
2018-05-09T10:05:58.465Z,31.36
2018-05-09T10:08:28.573Z,32.32
2018-05-09T10:10:58.859Z,31.67
2018-05-09T10:13:28.986Z,31.15
2018-05-09T10:15:59.147Z,30.61
2018-05-09T10:18:29.374Z,31.29
2018-05-09T10:20:59.451Z,31.94
2018-05-09T10:23:29.531Z,33.06
2018-05-09T10:26:00.306Z,33.87
2018-05-09T10:28:30.641Z,33.07
2018-05-09T10:31:00.718Z,32.17
2018-05-09T10:33:31.211Z,32.60
2018-05-09T10:36:01.327Z,32.80
2018-05-09T10:38:31.419Z,32.69
2018-05-09T10:41:01.232Z,32.53
2018-05-09T10:43:31.416Z,32.57
2018-05-09T10:46:01.935Z,32.19
2018-05-09T10:48:31.795Z,32.79
2018-05-09T10:51:01.676Z,30.37
2018-05-09T10:53:31.771Z,31.99
2018-05-09T10:56:01.835Z,30.50
2018-05-09T10:58:31.912Z,29.82
2018-05-09T11:01:01.967Z,29.35
2018-05-09T11:03:32.974Z,29.96
2018-05-09T11:06:03.134Z,30.23
2018-05-09T11:08:33.318Z,30.11
2018-05-09T11:11:03.168Z,30.89
2018-05-09T11:13:33.068Z,31.46
2018-05-09T11:16:03.584Z,30.48
2018-05-09T11:18:33.843Z,31.02
2018-05-09T11:21:04.500Z,31.84
2018-05-09T11:23:34.578Z,31.97
2018-05-09T11:26:04.456Z,31.27
2018-05-09T11:28:34.598Z,31.60
2018-05-09T11:31:05.132Z,32.00
2018-05-09T11:33:35.604Z,32.82
2018-05-09T11:36:05.704Z,32.68
2018-05-09T11:38:35.818Z,31.60
2018-05-09T11:41:06.211Z,32.43
2018-05-09T11:43:36.453Z,32.26
2018-05-09T11:46:06.543Z,31.89
2018-05-09T11:48:36.707Z,32.74
2018-05-09T11:51:06.829Z,31.75
2018-05-09T11:53:36.927Z,33.15
2018-05-09T11:56:07.398Z,33.21
2018-05-09T11:58:37.470Z,34.56
2018-05-09T12:01:07.955Z,35.09
2018-05-09T12:03:38.046Z,32.26
2018-05-09T12:06:08.125Z,31.75
2018-05-09T12:08:38.503Z,32.58
2018-05-09T12:11:08.373Z,32.26
2018-05-09T12:13:38.851Z,31.18
2018-05-09T12:16:08.705Z,30.73
2018-05-09T12:18:38.585Z,32.36
2018-05-09T12:21:08.716Z,31.89
2018-05-09T12:23:38.825Z,32.75
2018-05-09T12:26:08.905Z,32.03
2018-05-09T12:28:39.402Z,32.95
2018-05-09T12:31:09.353Z,31.94
2018-05-09T12:33:39.426Z,32.00
2018-05-09T12:36:09.495Z,31.30
2018-05-09T12:38:39.777Z,31.29
2018-05-09T12:41:09.613Z,31.26
2018-05-09T12:43:40.112Z,32.35
2018-05-09T12:46:10.238Z,31.73
2018-05-09T12:48:40.377Z,30.18
2018-05-09T12:51:10.581Z,31.09
2018-05-09T12:53:40.668Z,30.84
2018-05-09T12:56:10.646Z,31.87
2018-05-09T12:58:40.835Z,31.65
2018-05-09T13:01:11.345Z,31.15
2018-05-09T13:03:41.455Z,31.21
2018-05-09T13:06:11.567Z,30.70
2018-05-09T13:08:41.991Z,31.38
2018-05-09T13:11:12.069Z,32.12
2018-05-09T13:13:42.583Z,30.13
2018-05-09T13:16:12.665Z,31.32
2018-05-09T13:18:42.898Z,30.86
2018-05-09T13:21:12.975Z,30.77
2018-05-09T13:23:43.529Z,30.61
2018-05-09T13:26:14.235Z,29.52
2018-05-09T13:28:44.501Z,29.83
2018-05-09T13:31:14.593Z,29.47
2018-05-09T13:33:44.677Z,28.73
2018-05-09T13:36:14.805Z,29.35
2018-05-09T13:38:44.907Z,29.48
2018-05-09T13:41:14.999Z,32.22
2018-05-09T13:43:45.101Z,30.40
2018-05-09T13:46:15.175Z,28.96
2018-05-09T13:48:45.489Z,30.60
2018-05-09T13:51:15.576Z,29.39
2018-05-09T13:53:45.686Z,28.93
2018-05-09T13:56:15.903Z,29.77
2018-05-09T13:58:45.992Z,30.05
2018-05-09T14:01:16.467Z,29.99
2018-05-09T14:03:46.555Z,30.53
2018-05-09T14:06:16.809Z,30.62
2018-05-09T14:08:46.895Z,30.36
2018-05-09T14:11:17.361Z,29.49
2018-05-09T14:13:47.449Z,28.41
2018-05-09T14:16:17.515Z,28.95
2018-05-09T14:18:47.367Z,28.96
2018-05-09T14:21:17.867Z,30.19
2018-05-09T14:23:47.941Z,30.12
2018-05-09T14:26:17.995Z,29.80
2018-05-09T14:28:48.057Z,30.07
2018-05-09T14:31:18.517Z,30.05
2018-05-09T14:33:48.607Z,30.15
2018-05-09T14:36:19.088Z,33.43
2018-05-09T14:38:49.198Z,34.40
2018-05-09T14:41:19.289Z,34.81
2018-05-09T14:43:49.382Z,33.59
2018-05-09T14:46:19.833Z,33.48
2018-05-09T14:48:49.924Z,33.30
2018-05-09T14:51:20.437Z,32.89
2018-05-09T14:53:50.307Z,33.19
2018-05-09T14:56:20.483Z,33.81
2018-05-09T14:58:50.615Z,34.37
2018-05-09T15:01:21.072Z,34.24
2018-05-09T15:03:50.927Z,33.71
2018-05-09T15:06:21.011Z,33.57
2018-05-09T15:08:51.145Z,33.48
2018-05-09T15:11:21.281Z,34.20
2018-05-09T15:13:51.383Z,35.00
2018-05-09T15:16:21.462Z,35.77
2018-05-09T15:18:51.932Z,36.53
2018-05-09T15:21:22.124Z,37.64
2018-05-09T15:23:52.209Z,37.97
2018-05-09T15:26:22.765Z,39.15
2018-05-09T15:28:53.015Z,40.32
2018-05-09T15:31:23.347Z,41.25
2018-05-09T15:33:53.424Z,43.46
2018-05-09T15:36:23.900Z,44.47
2018-05-09T15:38:54.089Z,44.54
2018-05-09T15:41:24.680Z,43.74
2018-05-09T15:43:54.837Z,44.08
2018-05-09T15:46:24.963Z,44.12
2018-05-09T15:48:55.075Z,43.38
2018-05-09T15:51:25.566Z,42.60
2018-05-09T15:53:55.685Z,42.49
2018-05-09T15:56:25.799Z,42.50
2018-05-09T15:58:55.917Z,42.71
2018-05-09T16:01:26.895Z,43.07
2018-05-09T16:03:57.399Z,43.58
2018-05-09T16:06:27.475Z,43.11
2018-05-09T16:08:57.568Z,43.32
2018-05-09T16:11:28.080Z,43.17
2018-05-09T16:13:58.204Z,42.26
2018-05-09T16:16:28.659Z,41.59
2018-05-09T16:25:47.308Z,40.28
2018-05-09T16:28:18.786Z,39.58
2018-05-09T16:30:48.912Z,39.92
2018-05-09T16:33:19.416Z,40.23
2018-05-09T16:35:50.116Z,41.00
2018-05-09T16:38:20.606Z,41.42
2018-05-09T16:40:51.110Z,41.50
2018-05-09T16:43:22.454Z,40.63
2018-05-09T16:45:52.964Z,41.41
2018-05-09T16:48:23.035Z,41.82
2018-05-09T16:50:53.496Z,41.29
2018-05-09T16:53:23.600Z,40.95
2018-05-09T16:55:54.241Z,41.24
2018-05-09T16:58:24.345Z,41.80
2018-05-09T17:00:55.547Z,43.34
2018-05-09T17:03:25.701Z,44.35
2018-05-09T17:05:55.943Z,45.33
2018-05-09T17:08:26.809Z,45.90
2018-05-09T17:10:57.011Z,45.54
2018-05-09T17:13:27.546Z,45.93
2018-05-09T17:15:57.481Z,46.63
2018-05-09T17:18:27.044Z,46.49
2018-05-09T17:20:56.785Z,46.03
2018-05-09T17:23:26.734Z,45.73
2018-05-09T17:25:56.276Z,45.39
2018-05-09T17:28:25.814Z,45.23
2018-05-09T17:30:56.012Z,44.71
2018-05-09T17:33:25.535Z,44.92
2018-05-09T17:35:55.802Z,45.24
2018-05-09T17:38:25.328Z,45.32
2018-05-09T17:40:54.879Z,45.72
2018-05-09T17:43:25.084Z,46.09
2018-05-09T17:45:55.044Z,46.26
2018-05-09T17:48:24.651Z,46.24
2018-05-09T17:50:55.822Z,47.43
2018-05-09T17:53:25.359Z,48.09
2018-05-09T17:55:54.920Z,48.12
2018-05-09T17:58:24.520Z,48.46
2018-05-09T18:00:54.041Z,48.48
2018-05-09T18:03:23.940Z,49.15
2018-05-09T18:05:53.892Z,49.22
2018-05-09T18:08:24.179Z,49.69
2018-05-09T18:10:53.714Z,50.23
2018-05-09T18:13:23.259Z,50.53
2018-05-09T18:15:53.193Z,51.35
2018-05-09T18:18:23.423Z,51.97
2018-05-09T18:20:53.564Z,53.20
2018-05-09T18:23:23.924Z,53.66
2018-05-09T18:25:53.499Z,54.25
2018-05-09T18:28:23.033Z,55.06
2018-05-09T18:30:52.573Z,55.21
2018-05-09T18:33:22.503Z,55.40
2018-05-09T18:35:52.096Z,55.21
2018-05-09T18:38:22.247Z,55.22
2018-05-09T18:40:51.777Z,55.32
2018-05-09T18:43:21.283Z,55.19
2018-05-09T18:45:50.824Z,54.92
2018-05-09T18:48:21.553Z,55.09
2018-05-09T18:50:51.481Z,54.83
2018-05-09T18:53:21.449Z,54.56
2018-05-09T18:55:51.187Z,54.25
2018-05-09T18:58:20.713Z,54.08
2018-05-09T19:00:50.401Z,53.74
2018-05-09T19:03:19.982Z,53.67
2018-05-09T19:05:49.556Z,53.54
2018-05-09T19:08:19.309Z,53.54
2018-05-09T19:10:48.875Z,53.72
2018-05-09T19:13:18.419Z,53.34
2018-05-09T19:15:48.303Z,53.71
2018-05-09T19:18:19.104Z,53.95
2018-05-09T19:20:48.553Z,54.34
2018-05-09T19:23:18.167Z,54.69
2018-05-09T19:25:48.047Z,55.19
2018-05-09T19:28:17.669Z,55.52
2018-05-09T19:30:46.906Z,56.03
2018-05-09T19:33:16.474Z,56.17
2018-05-09T19:35:46.015Z,56.18
2018-05-09T19:38:15.554Z,56.63
2018-05-09T19:40:45.506Z,56.95
2018-05-09T19:43:15.631Z,57.04
2018-05-09T19:45:45.234Z,56.99
2018-05-09T19:48:14.580Z,57.09
2018-05-09T19:50:43.918Z,57.07
2018-05-09T19:53:13.951Z,56.85
2018-05-09T19:55:43.623Z,56.37
2018-05-09T19:58:13.598Z,56.51
2018-05-09T20:00:43.137Z,56.52
2018-05-09T20:03:12.670Z,56.23
2018-05-09T20:05:42.625Z,56.51
2018-05-09T20:08:12.265Z,56.52
2018-05-09T20:10:41.846Z,57.16
2018-05-09T20:13:11.819Z,57.96
2018-05-09T20:15:41.856Z,58.43
2018-05-09T20:18:11.754Z,59.35
2018-05-09T20:20:41.784Z,59.92
2018-05-09T20:23:11.336Z,59.83
2018-05-09T20:25:40.880Z,59.51
2018-05-09T20:28:10.900Z,59.35
2018-05-09T20:30:46.233Z,59.28
2018-05-09T20:33:16.255Z,59.09
2018-05-09T20:35:46.203Z,58.86
2018-05-09T20:38:15.749Z,58.81
2018-05-09T20:40:45.279Z,59.59
2018-05-09T20:43:15.230Z,59.55
2018-05-09T20:45:44.747Z,59.48
2018-05-09T20:48:14.291Z,59.20
2018-05-09T20:50:43.834Z,58.91
2018-05-09T20:53:13.448Z,58.71
2018-05-09T20:55:43.175Z,58.84
2018-05-09T20:58:12.697Z,58.92
2018-05-09T21:00:42.290Z,58.96
2018-05-09T21:03:11.513Z,58.97
2018-05-09T21:05:40.721Z,59.03
2018-05-09T21:08:10.275Z,59.03
2018-05-09T21:10:39.823Z,59.25
2018-05-09T21:13:09.442Z,60.00
2018-05-09T21:15:39.057Z,60.42
2018-05-09T21:18:09.328Z,61.34
2018-05-09T21:20:47.357Z,62.11
2018-05-09T21:23:25.261Z,62.88
2018-05-09T21:25:55.993Z,62.89
2018-05-09T21:28:25.609Z,61.83
2018-05-09T21:30:55.299Z,61.26
2018-05-09T21:33:24.903Z,61.33
2018-05-09T21:35:56.212Z,61.16
2018-05-09T21:38:25.850Z,61.16
2018-05-09T21:40:55.920Z,60.69
2018-05-09T21:43:26.326Z,60.68
2018-05-09T21:45:55.563Z,60.43
2018-05-09T21:48:25.500Z,60.32
2018-05-09T21:50:55.404Z,60.53
2018-05-09T21:53:25.377Z,60.46
2018-05-09T21:55:55.017Z,60.33
2018-05-09T21:58:25.058Z,60.19
2018-05-09T22:00:54.834Z,60.23
2018-05-09T22:03:24.370Z,60.50
2018-05-09T22:05:54.304Z,60.55
2018-05-09T22:08:23.856Z,60.48
2018-05-09T22:10:53.402Z,60.60
2018-05-09T22:13:22.894Z,60.35
2018-05-09T22:15:52.608Z,60.37
2018-05-09T22:18:22.540Z,60.21
2018-05-09T22:20:52.070Z,60.14
2018-05-09T22:23:21.630Z,60.34
2018-05-09T22:25:51.544Z,60.58
2018-05-09T22:28:21.474Z,60.95
2018-05-09T22:30:51.522Z,60.89
2018-05-09T22:33:21.163Z,60.93
2018-05-09T22:35:51.026Z,61.00
2018-05-09T22:38:20.598Z,61.28
2018-05-09T22:40:50.306Z,61.24
2018-05-09T22:43:19.914Z,61.40
2018-05-09T22:45:49.480Z,62.06
2018-05-09T22:48:19.018Z,62.39
2018-05-09T22:50:48.532Z,62.68
2018-05-09T22:53:18.072Z,62.59
2018-05-09T22:55:47.626Z,62.74
2018-05-09T22:58:17.172Z,62.68
2018-05-09T23:00:47.098Z,62.61
2018-05-09T23:03:16.791Z,62.58
2018-05-09T23:05:46.762Z,62.50
2018-05-09T23:08:16.337Z,62.85
2018-05-09T23:10:45.874Z,63.22
2018-05-09T23:13:15.379Z,63.56
2018-05-09T23:15:44.924Z,63.62
2018-05-09T23:18:14.554Z,63.77
2018-05-09T23:20:44.504Z,63.73
2018-05-09T23:23:14.024Z,64.19
2018-05-09T23:25:43.556Z,64.07
2018-05-09T23:28:13.090Z,64.33
2018-05-09T23:30:43.028Z,64.53
2018-05-09T23:33:12.594Z,64.40
2018-05-09T23:35:42.513Z,64.49
2018-05-09T23:38:12.497Z,64.46
2018-05-09T23:40:42.107Z,64.52
2018-05-09T23:43:11.734Z,64.68
2018-05-09T23:45:41.936Z,64.43
2018-05-09T23:48:11.250Z,64.66
2018-05-09T23:50:40.572Z,64.48
2018-05-09T23:53:10.210Z,64.38
2018-05-09T23:55:39.787Z,64.52
2018-05-09T23:58:09.550Z,64.21
